Terminal Aerodrome Forecast
Issued by NWS Grand Forks, ND

Home | Current Version | Previous Version | Graphics & Text | Print | Product List | Glossary On
Versions: 1 2 3 4 5 6 7 8 9 10 11 12 13 14 15 16 17 18 19 20 21 22 23
000
FTUS43 KFGF 271728
TAFFAR
TAF
KFAR 271728Z 2718/2818 27015G25KT P6SM SCT070
     FM272100 25015G25KT P6SM VCSH BKN070
     FM280100 28012KT P6SM VCSH BKN070
     FM280500 30007KT P6SM SCT080
     FM281400 31014G23KT P6SM SCT050=

USA.gov is the U.S. government's official web portal to all federal, state and local government web resources and services.